createdAt,value
2017-06-29T00:00:39.904Z,3.00
2017-06-29T00:03:08.223Z,3.17
2017-06-29T00:05:35.819Z,2.23
2017-06-29T00:08:03.354Z,2.33
2017-06-29T00:10:30.929Z,3.23
2017-06-29T00:12:58.520Z,2.80
2017-06-29T00:15:26.111Z,2.27
2017-06-29T00:17:54.469Z,2.57
2017-06-29T00:20:22.055Z,2.57
2017-06-29T00:22:49.611Z,2.50
2017-06-29T00:25:17.161Z,2.03
2017-06-29T00:27:44.751Z,2.10
2017-06-29T00:30:13.083Z,2.50
2017-06-29T00:32:40.635Z,2.13
2017-06-29T00:35:08.680Z,1.50
2017-06-29T00:37:37.013Z,1.80
2017-06-29T00:40:04.672Z,1.40
2017-06-29T00:42:32.247Z,0.60
2017-06-29T00:44:59.782Z,1.00
2017-06-29T00:47:27.349Z,0.70
2017-06-29T00:49:54.980Z,0.60
2017-06-29T00:52:23.327Z,0.40
2017-06-29T00:54:51.753Z,0.40
2017-06-29T00:57:19.318Z,0.50
2017-06-29T00:59:47.639Z,0.50
2017-06-29T01:02:15.178Z,0.40
2017-06-29T01:04:42.789Z,0.50
2017-06-29T01:07:10.357Z,0.50
2017-06-29T01:09:37.899Z,0.50
2017-06-29T01:12:05.567Z,0.60
2017-06-29T01:14:33.111Z,0.43
2017-06-29T01:17:00.665Z,0.40
2017-06-29T01:19:28.242Z,0.50
2017-06-29T01:21:55.789Z,0.50
2017-06-29T01:24:23.366Z,0.40
2017-06-29T01:26:50.928Z,0.40
2017-06-29T01:29:18.498Z,0.57
2017-06-29T01:31:46.064Z,0.50
2017-06-29T01:34:13.640Z,0.50
2017-06-29T01:36:41.184Z,0.40
2017-06-29T01:39:09.481Z,0.50
2017-06-29T01:41:38.056Z,0.40
2017-06-29T01:44:05.573Z,0.50
2017-06-29T01:46:33.115Z,0.40
2017-06-29T01:49:00.687Z,0.50
2017-06-29T01:51:28.252Z,0.67
2017-06-29T01:53:55.841Z,0.50
2017-06-29T01:56:24.466Z,0.40
2017-06-29T01:58:52.082Z,0.53
2017-06-29T02:01:19.634Z,0.40
2017-06-29T02:03:47.201Z,0.60
2017-06-29T02:06:14.778Z,0.60
2017-06-29T02:08:42.356Z,0.60
2017-06-29T02:11:09.918Z,0.60
2017-06-29T02:13:37.478Z,0.40
2017-06-29T02:16:05.040Z,0.70
2017-06-29T02:18:32.661Z,0.43
2017-06-29T02:21:00.213Z,0.50
2017-06-29T02:23:27.779Z,0.50
2017-06-29T02:25:55.338Z,0.57
2017-06-29T02:28:22.909Z,0.47
2017-06-29T02:30:50.466Z,0.60
2017-06-29T02:33:18.084Z,0.50
2017-06-29T02:35:45.624Z,0.60
2017-06-29T02:38:13.301Z,0.50
2017-06-29T02:40:40.827Z,0.63
2017-06-29T02:43:08.359Z,0.40
2017-06-29T02:45:35.925Z,0.50
2017-06-29T02:48:03.485Z,0.50
2017-06-29T02:50:31.052Z,0.50
2017-06-29T02:52:58.624Z,0.40
2017-06-29T02:55:26.171Z,0.50
2017-06-29T02:57:53.713Z,0.53
2017-06-29T03:00:21.522Z,0.43
2017-06-29T03:02:49.110Z,0.57
2017-06-29T03:05:17.431Z,0.47
2017-06-29T03:07:45.015Z,0.50
2017-06-29T03:10:12.562Z,0.47
2017-06-29T03:12:40.098Z,0.40
2017-06-29T03:15:07.679Z,0.40
2017-06-29T03:17:35.213Z,0.40
2017-06-29T03:20:02.734Z,0.50
2017-06-29T03:22:30.323Z,0.50
2017-06-29T03:24:57.872Z,0.40
2017-06-29T03:27:25.416Z,0.50
2017-06-29T03:29:53.006Z,0.60
2017-06-29T03:32:20.539Z,0.50
2017-06-29T03:34:48.117Z,0.50
2017-06-29T03:37:15.680Z,0.40
2017-06-29T03:39:43.243Z,0.47
2017-06-29T03:42:10.789Z,0.50
2017-06-29T03:44:38.357Z,0.50
2017-06-29T03:47:05.902Z,0.40
2017-06-29T03:49:33.471Z,0.50
2017-06-29T03:52:01.025Z,0.43
2017-06-29T03:54:28.569Z,0.60
2017-06-29T03:56:56.111Z,0.50
2017-06-29T03:59:23.728Z,0.43
2017-06-29T04:01:51.282Z,0.50
2017-06-29T04:04:18.837Z,0.60
2017-06-29T04:06:46.411Z,0.50
2017-06-29T04:09:13.927Z,0.50
2017-06-29T04:11:41.457Z,0.50
2017-06-29T04:14:09.047Z,0.53
2017-06-29T04:16:36.576Z,0.70
2017-06-29T04:19:04.111Z,0.50
2017-06-29T04:21:31.673Z,0.70
2017-06-29T04:23:59.210Z,0.70
2017-06-29T04:26:26.755Z,0.90
2017-06-29T04:28:54.340Z,0.80
2017-06-29T04:31:21.903Z,0.90
2017-06-29T04:33:49.479Z,0.90
2017-06-29T04:36:17.084Z,0.80
2017-06-29T04:38:44.650Z,1.20
2017-06-29T04:41:12.235Z,1.00
2017-06-29T04:43:40.821Z,0.90
2017-06-29T04:46:08.430Z,0.93
2017-06-29T04:48:35.958Z,0.90
2017-06-29T04:51:03.509Z,1.10
2017-06-29T04:53:31.083Z,1.17
2017-06-29T04:55:58.619Z,1.07
2017-06-29T04:58:26.975Z,0.87
2017-06-29T05:00:54.517Z,1.17
2017-06-29T05:03:22.110Z,1.20
2017-06-29T05:05:49.692Z,1.00
2017-06-29T05:08:17.259Z,1.40
2017-06-29T05:10:45.575Z,1.30
2017-06-29T05:13:13.154Z,1.10
2017-06-29T05:15:40.690Z,1.20
2017-06-29T05:18:08.275Z,1.27
2017-06-29T05:20:35.862Z,1.27
2017-06-29T05:23:03.448Z,1.20
2017-06-29T05:25:31.025Z,0.90
2017-06-29T05:27:58.589Z,1.20
2017-06-29T05:30:26.940Z,1.20
2017-06-29T05:32:54.609Z,1.20
2017-06-29T05:35:22.237Z,1.13
2017-06-29T05:37:49.832Z,1.07
2017-06-29T05:40:17.455Z,1.40
2017-06-29T05:42:45.063Z,1.13
2017-06-29T05:45:12.680Z,1.40
2017-06-29T05:47:40.268Z,1.40
2017-06-29T05:50:07.839Z,1.20
2017-06-29T05:52:35.457Z,1.10
2017-06-29T05:55:03.096Z,1.07
2017-06-29T05:57:30.685Z,1.37
2017-06-29T05:59:58.401Z,1.10
2017-06-29T06:02:26.068Z,1.57
2017-06-29T06:04:53.684Z,1.07
2017-06-29T06:07:21.765Z,1.10
2017-06-29T06:09:50.395Z,1.10
2017-06-29T06:12:20.107Z,0.90
2017-06-29T06:14:52.286Z,0.90
2017-06-29T06:17:21.564Z,1.10
2017-06-29T06:19:49.274Z,1.20
2017-06-29T06:22:16.895Z,1.23
2017-06-29T06:24:44.487Z,0.97
2017-06-29T06:27:12.128Z,0.90
2017-06-29T06:29:39.868Z,1.10
2017-06-29T06:32:07.488Z,1.10
2017-06-29T06:34:35.088Z,1.20
2017-06-29T06:37:02.729Z,1.10
2017-06-29T06:39:30.694Z,1.20
2017-06-29T06:41:58.484Z,1.03
2017-06-29T06:44:26.128Z,1.13
2017-06-29T06:46:53.723Z,1.40
2017-06-29T06:49:21.576Z,1.30
2017-06-29T06:51:49.234Z,2.10
2017-06-29T06:54:16.857Z,1.50
2017-06-29T06:56:45.201Z,1.43
2017-06-29T06:59:13.717Z,1.67
2017-06-29T07:01:41.311Z,1.20
2017-06-29T07:04:09.159Z,2.20
2017-06-29T07:06:37.061Z,1.63
2017-06-29T07:09:05.159Z,1.50
2017-06-29T07:11:32.779Z,1.40
2017-06-29T07:14:00.868Z,1.57
2017-06-29T07:16:28.561Z,2.30
2017-06-29T07:18:56.430Z,1.80
2017-06-29T07:21:24.270Z,1.70
2017-06-29T07:23:51.918Z,1.40
2017-06-29T07:26:20.274Z,1.80
2017-06-29T07:28:48.043Z,1.60
2017-06-29T07:31:15.649Z,2.20
2017-06-29T07:33:43.314Z,1.80
2017-06-29T07:36:11.367Z,1.90
2017-06-29T07:38:39.065Z,2.00
2017-06-29T07:41:06.745Z,2.37
2017-06-29T07:43:35.241Z,1.83
2017-06-29T07:46:02.874Z,2.03
2017-06-29T07:48:31.395Z,1.93
2017-06-29T07:50:59.823Z,2.60
2017-06-29T07:53:27.469Z,3.27
2017-06-29T07:55:55.090Z,3.57
2017-06-29T07:58:23.418Z,2.80
2017-06-29T08:00:51.923Z,2.60
2017-06-29T08:03:20.087Z,2.97
2017-06-29T08:05:49.510Z,3.20
2017-06-29T08:08:17.891Z,3.20
2017-06-29T08:10:45.513Z,3.60
2017-06-29T08:13:13.122Z,3.80
2017-06-29T08:15:40.720Z,3.23
2017-06-29T08:18:08.381Z,3.10
2017-06-29T08:20:35.993Z,3.20
2017-06-29T08:23:05.089Z,3.17
2017-06-29T08:25:32.696Z,3.33
2017-06-29T08:28:01.057Z,3.57
2017-06-29T08:30:29.817Z,3.30
2017-06-29T08:32:58.851Z,3.00
2017-06-29T08:35:26.606Z,3.27
2017-06-29T08:37:54.574Z,3.03
2017-06-29T08:40:22.564Z,2.50
2017-06-29T08:42:50.929Z,3.10
2017-06-29T08:45:18.530Z,2.67
2017-06-29T08:47:47.165Z,2.73
2017-06-29T08:50:14.794Z,2.80
2017-06-29T08:52:42.515Z,2.40
2017-06-29T08:55:10.187Z,2.80
2017-06-29T08:57:37.989Z,3.13
2017-06-29T09:00:06.400Z,3.73
2017-06-29T09:02:34.022Z,2.83
2017-06-29T09:05:01.613Z,2.77
2017-06-29T09:07:29.221Z,2.77
2017-06-29T09:09:56.883Z,3.00
2017-06-29T09:12:24.512Z,2.53
2017-06-29T09:14:52.884Z,2.90
2017-06-29T09:17:20.622Z,3.07
2017-06-29T09:19:49.073Z,2.93
2017-06-29T09:22:16.675Z,3.13
2017-06-29T09:24:44.321Z,2.70
2017-06-29T09:27:11.885Z,3.17
2017-06-29T09:29:39.786Z,2.73
2017-06-29T09:32:08.211Z,2.80
2017-06-29T09:34:36.653Z,2.87
2017-06-29T09:37:04.668Z,2.43
2017-06-29T09:39:32.352Z,2.57
2017-06-29T09:41:59.949Z,2.60
2017-06-29T09:44:27.748Z,2.60
2017-06-29T09:46:55.388Z,2.27
2017-06-29T09:49:22.949Z,2.60
2017-06-29T09:51:50.534Z,2.60
2017-06-29T09:54:18.937Z,2.43
2017-06-29T09:56:48.381Z,2.30
2017-06-29T09:59:15.962Z,2.93
2017-06-29T10:01:43.816Z,2.37
2017-06-29T10:04:11.494Z,2.40
2017-06-29T10:06:39.135Z,2.40
2017-06-29T10:09:07.097Z,2.47
2017-06-29T10:11:34.699Z,2.23
2017-06-29T10:14:02.329Z,2.47
2017-06-29T10:16:30.815Z,2.90
2017-06-29T10:18:58.534Z,2.17
2017-06-29T10:21:26.119Z,2.90
2017-06-29T10:23:54.679Z,2.83
2017-06-29T10:26:30.184Z,3.60
2017-06-29T10:28:58.961Z,3.10
2017-06-29T10:31:26.570Z,2.80
2017-06-29T10:33:54.220Z,2.93
2017-06-29T10:36:21.914Z,3.53
2017-06-29T10:38:50.782Z,3.00
2017-06-29T10:41:18.376Z,4.17
2017-06-29T10:43:46.030Z,2.70
2017-06-29T10:46:15.928Z,2.83
2017-06-29T10:48:44.836Z,3.20
2017-06-29T10:51:13.284Z,2.90
2017-06-29T10:53:40.906Z,2.83
2017-06-29T10:56:11.193Z,2.57
2017-06-29T10:58:39.645Z,2.73
2017-06-29T11:01:08.176Z,2.63
2017-06-29T11:03:35.777Z,2.60
2017-06-29T11:06:04.473Z,2.70
2017-06-29T11:08:32.085Z,2.67
2017-06-29T11:10:59.694Z,3.07
2017-06-29T11:13:27.618Z,2.67
2017-06-29T11:15:55.563Z,3.03
2017-06-29T11:18:23.188Z,2.63
2017-06-29T11:20:51.473Z,2.50
2017-06-29T11:23:20.203Z,2.53
2017-06-29T11:25:47.772Z,3.00
2017-06-29T11:28:15.383Z,2.60
2017-06-29T11:30:43.663Z,3.23
2017-06-29T11:33:12.372Z,2.80
2017-06-29T11:39:02.625Z,2.97
2017-06-29T11:41:30.233Z,2.90
2017-06-29T11:43:57.828Z,2.80
2017-06-29T11:46:25.976Z,2.90
2017-06-29T11:48:53.583Z,3.13
2017-06-29T11:51:21.187Z,2.80
2017-06-29T11:53:48.812Z,2.80
2017-06-29T11:56:16.406Z,2.50
2017-06-29T11:58:43.987Z,2.80
2017-06-29T12:01:11.672Z,2.63
2017-06-29T12:03:39.259Z,2.70
2017-06-29T12:06:06.863Z,2.50
2017-06-29T12:08:34.481Z,2.60
2017-06-29T12:11:02.059Z,2.50
2017-06-29T12:13:29.660Z,2.67
2017-06-29T12:15:57.274Z,2.80
2017-06-29T12:18:25.795Z,2.70
2017-06-29T12:20:53.413Z,2.77
2017-06-29T12:23:21.725Z,2.60
2017-06-29T12:25:49.360Z,2.77
2017-06-29T12:28:16.964Z,2.57
2017-06-29T12:30:44.631Z,2.40
2017-06-29T12:33:12.224Z,2.60
2017-06-29T12:35:39.856Z,2.50
2017-06-29T12:38:07.486Z,2.70
2017-06-29T12:40:35.323Z,2.70
2017-06-29T12:43:02.909Z,2.73
2017-06-29T12:45:30.524Z,2.73
2017-06-29T12:47:58.158Z,2.60
2017-06-29T12:50:25.758Z,2.40
2017-06-29T12:52:53.713Z,2.30
2017-06-29T12:55:21.325Z,2.77
2017-06-29T12:57:48.918Z,2.90
2017-06-29T13:00:16.519Z,2.70
2017-06-29T13:02:44.133Z,2.90
2017-06-29T13:05:11.715Z,2.77
2017-06-29T13:07:42.471Z,2.70
2017-06-29T13:10:10.965Z,2.50
2017-06-29T13:12:38.672Z,2.80
2017-06-29T13:15:06.289Z,2.50
2017-06-29T13:17:33.874Z,2.60
2017-06-29T13:20:01.479Z,2.60
2017-06-29T13:22:31.827Z,2.80
2017-06-29T13:24:59.441Z,2.60
2017-06-29T13:27:27.064Z,2.40
2017-06-29T13:29:54.806Z,2.50
2017-06-29T13:32:22.583Z,2.57
2017-06-29T13:34:50.638Z,2.30
2017-06-29T13:37:18.316Z,2.60
2017-06-29T13:39:45.948Z,2.50
2017-06-29T13:42:13.620Z,2.70
2017-06-29T13:44:41.243Z,2.53
2017-06-29T13:47:08.843Z,2.57
2017-06-29T13:49:36.519Z,2.67
2017-06-29T13:52:04.529Z,2.80
2017-06-29T13:54:32.162Z,3.20
2017-06-29T13:57:00.119Z,2.87
2017-06-29T13:59:27.820Z,2.60
2017-06-29T14:01:55.508Z,2.70
2017-06-29T14:04:24.404Z,2.60
2017-06-29T14:06:52.143Z,2.90
2017-06-29T14:09:19.745Z,2.73
2017-06-29T14:11:47.349Z,2.57
2017-06-29T14:14:14.969Z,2.50
2017-06-29T14:16:43.950Z,2.23
2017-06-29T14:19:11.593Z,2.40
2017-06-29T14:21:40.095Z,2.10
2017-06-29T14:24:07.900Z,2.20
2017-06-29T14:26:35.587Z,2.07
2017-06-29T14:29:03.355Z,2.00
2017-06-29T14:31:31.866Z,2.20
2017-06-29T14:34:01.583Z,2.10
2017-06-29T14:36:29.321Z,2.67
2017-06-29T14:38:57.086Z,2.40
2017-06-29T14:41:24.882Z,2.37
2017-06-29T14:43:54.552Z,2.20
2017-06-29T14:46:22.230Z,2.10
2017-06-29T14:48:50.745Z,2.20
2017-06-29T14:51:18.392Z,2.00
2017-06-29T14:53:45.980Z,2.43
2017-06-29T14:56:13.609Z,2.23
2017-06-29T14:58:42.683Z,2.63
2017-06-29T15:01:10.292Z,3.37
2017-06-29T15:03:37.932Z,2.60
2017-06-29T15:06:09.598Z,2.50
2017-06-29T15:08:37.322Z,2.53
2017-06-29T15:11:05.034Z,2.60
2017-06-29T15:13:34.762Z,2.70
2017-06-29T15:16:02.406Z,2.73
2017-06-29T15:18:34.099Z,3.00
2017-06-29T15:21:01.874Z,2.70
2017-06-29T15:23:29.507Z,2.93
2017-06-29T15:25:58.025Z,2.50
2017-06-29T15:28:26.520Z,2.50
2017-06-29T15:30:54.142Z,2.50
2017-06-29T15:33:21.825Z,2.53
2017-06-29T15:35:49.495Z,2.80
2017-06-29T15:38:17.420Z,2.30
2017-06-29T15:40:45.645Z,2.23
2017-06-29T15:43:14.603Z,2.20
2017-06-29T15:45:42.233Z,2.73
2017-06-29T15:48:09.858Z,2.50
2017-06-29T15:50:37.517Z,2.40
2017-06-29T15:53:05.146Z,1.90
2017-06-29T15:55:36.391Z,2.13
2017-06-29T15:58:04.038Z,2.53
2017-06-29T16:00:31.667Z,1.80
2017-06-29T16:02:59.252Z,2.00
2017-06-29T16:05:27.898Z,1.90
2017-06-29T16:07:55.482Z,1.63
2017-06-29T16:10:23.176Z,1.53
2017-06-29T16:12:50.819Z,1.50
2017-06-29T16:15:28.672Z,1.90
2017-06-29T16:17:56.516Z,1.37
2017-06-29T16:20:24.136Z,1.80
2017-06-29T16:22:51.744Z,2.00
2017-06-29T16:25:19.449Z,1.90
2017-06-29T16:27:47.084Z,1.93
2017-06-29T16:30:14.696Z,1.80
2017-06-29T16:32:42.416Z,1.70
2017-06-29T16:35:09.999Z,1.90
2017-06-29T16:37:37.716Z,1.63
2017-06-29T16:40:06.342Z,1.70
2017-06-29T16:42:33.932Z,1.87
2017-06-29T16:45:01.535Z,1.60
2017-06-29T16:47:29.142Z,1.63
2017-06-29T16:49:56.762Z,1.50
2017-06-29T16:52:27.435Z,1.50
2017-06-29T16:54:56.806Z,1.60
2017-06-29T16:57:24.440Z,1.50
2017-06-29T16:59:52.124Z,1.40
2017-06-29T17:02:19.796Z,1.73
2017-06-29T17:04:47.469Z,1.53
2017-06-29T17:07:15.100Z,1.63
2017-06-29T17:09:42.784Z,1.40
2017-06-29T17:12:12.148Z,1.67
2017-06-29T17:14:42.053Z,1.70
2017-06-29T17:17:09.734Z,1.67
2017-06-29T17:19:37.936Z,1.60
2017-06-29T17:22:05.829Z,1.50
2017-06-29T17:24:33.475Z,1.50
2017-06-29T17:27:02.350Z,1.30
2017-06-29T17:29:46.315Z,1.57
2017-06-29T17:32:14.445Z,1.30
2017-06-29T17:34:42.071Z,1.30
2017-06-29T17:37:09.794Z,1.50
2017-06-29T17:39:37.529Z,1.30
2017-06-29T17:42:05.524Z,1.33
2017-06-29T17:44:33.190Z,1.30
2017-06-29T17:47:03.661Z,1.23
2017-06-29T17:49:31.908Z,1.37
2017-06-29T17:52:01.252Z,1.00
2017-06-29T17:54:28.900Z,1.20
2017-06-29T17:57:05.779Z,1.13
2017-06-29T17:59:35.237Z,1.20
2017-06-29T18:02:07.136Z,1.50
2017-06-29T18:04:34.924Z,1.33
2017-06-29T18:07:03.446Z,1.00
2017-06-29T18:09:31.099Z,1.13
2017-06-29T18:11:59.591Z,1.10
2017-06-29T18:14:28.959Z,1.00
2017-06-29T18:17:06.952Z,1.20
2017-06-29T18:19:35.954Z,1.10
2017-06-29T18:22:05.534Z,1.20
2017-06-29T18:24:35.025Z,1.10
2017-06-29T18:27:05.030Z,1.20
2017-06-29T18:29:50.964Z,1.20
2017-06-29T18:32:19.255Z,1.20
2017-06-29T18:34:50.201Z,1.07
2017-06-29T18:37:17.946Z,1.00
2017-06-29T18:39:51.996Z,1.30
2017-06-29T18:42:19.760Z,1.20
2017-06-29T18:44:52.568Z,1.10
2017-06-29T18:47:22.160Z,1.20
2017-06-29T18:49:50.956Z,1.50
2017-06-29T18:52:21.538Z,1.10
2017-06-29T18:54:50.386Z,1.17
2017-06-29T18:57:19.687Z,1.10
2017-06-29T18:59:56.681Z,1.10
2017-06-29T19:02:24.652Z,1.20
2017-06-29T19:04:52.303Z,1.10
2017-06-29T19:07:19.934Z,1.10
2017-06-29T19:09:47.631Z,1.30
2017-06-29T19:12:15.261Z,1.10
2017-06-29T19:14:43.771Z,1.23
2017-06-29T19:17:13.347Z,1.20
2017-06-29T19:19:45.574Z,1.17
2017-06-29T19:22:14.336Z,1.30
2017-06-29T19:24:42.051Z,1.10
2017-06-29T19:27:10.434Z,1.20
2017-06-29T19:29:38.050Z,1.20
2017-06-29T19:32:05.963Z,1.00
2017-06-29T19:34:36.100Z,1.27
2017-06-29T19:37:04.060Z,1.20
2017-06-29T19:39:31.730Z,1.47
2017-06-29T19:42:00.361Z,1.23
2017-06-29T19:44:29.021Z,1.10
2017-06-29T19:46:56.988Z,1.10
2017-06-29T19:49:25.479Z,1.30
2017-06-29T19:51:54.869Z,1.30
2017-06-29T19:54:23.196Z,1.33
2017-06-29T19:56:50.935Z,1.33
2017-06-29T19:59:18.528Z,1.50
2017-06-29T20:01:46.687Z,1.40
2017-06-29T20:04:14.351Z,1.00
2017-06-29T20:06:42.569Z,1.27
2017-06-29T20:09:10.984Z,1.30
2017-06-29T20:14:23.740Z,1.10
2017-06-29T20:16:52.851Z,1.10
2017-06-29T20:19:21.429Z,1.20
2017-06-29T20:21:49.117Z,1.30
2017-06-29T20:24:29.808Z,1.30
2017-06-29T20:26:57.654Z,1.20
2017-06-29T20:29:26.815Z,1.20
2017-06-29T20:31:55.875Z,1.20
2017-06-29T20:34:24.460Z,1.43
2017-06-29T20:36:52.172Z,1.40
2017-06-29T20:39:21.266Z,1.20
2017-06-29T20:41:50.594Z,1.30
2017-06-29T20:44:24.805Z,1.13
2017-06-29T20:46:52.499Z,1.30
2017-06-29T20:49:34.456Z,1.30
2017-06-29T20:52:03.844Z,1.27
2017-06-29T20:57:46.647Z,1.10
2017-06-29T21:00:20.606Z,1.30
2017-06-29T21:18:32.630Z,1.50
2017-06-29T21:21:00.438Z,1.40
2017-06-29T21:23:28.204Z,1.50
2017-06-29T21:25:55.880Z,1.23
2017-06-29T21:28:23.607Z,1.37
2017-06-29T21:30:51.475Z,1.10
2017-06-29T21:33:19.176Z,1.40
2017-06-29T21:35:46.917Z,1.50
2017-06-29T21:38:15.863Z,1.30
2017-06-29T21:40:43.567Z,1.30
2017-06-29T21:43:11.339Z,1.27
2017-06-29T21:45:39.063Z,1.27
2017-06-29T21:48:06.768Z,1.30
2017-06-29T21:50:34.468Z,1.20
2017-06-29T21:53:02.177Z,1.50
2017-06-29T21:55:29.846Z,1.20
2017-06-29T21:57:57.515Z,1.27
2017-06-29T22:00:25.239Z,1.30
2017-06-29T22:02:52.928Z,1.30
2017-06-29T22:05:20.683Z,1.50
2017-06-29T22:07:48.415Z,1.30
2017-06-29T22:10:16.181Z,1.40
2017-06-29T22:12:43.884Z,1.20
2017-06-29T22:15:11.606Z,1.13
2017-06-29T22:17:39.368Z,1.20
2017-06-29T22:20:07.245Z,1.00
2017-06-29T22:22:35.011Z,1.30
2017-06-29T22:25:03.214Z,1.10
2017-06-29T22:27:30.871Z,1.23
2017-06-29T22:29:58.578Z,1.10
2017-06-29T22:32:26.298Z,1.10
2017-06-29T22:34:54.125Z,1.10
2017-06-29T22:37:21.903Z,1.17
2017-06-29T22:39:50.476Z,1.10
2017-06-29T22:42:18.221Z,1.20
2017-06-29T22:44:45.993Z,1.10
2017-06-29T22:47:13.730Z,1.00
2017-06-29T22:49:41.417Z,1.10
2017-06-29T22:52:09.414Z,0.90
2017-06-29T22:54:38.221Z,1.03
2017-06-29T22:57:05.958Z,1.00
2017-06-29T22:59:33.625Z,1.00
2017-06-29T23:02:01.419Z,1.03
2017-06-29T23:04:30.064Z,1.00
2017-06-29T23:06:57.843Z,0.97
2017-06-29T23:09:25.588Z,1.00
2017-06-29T23:11:53.296Z,1.00
2017-06-29T23:14:21.082Z,0.93
2017-06-29T23:16:48.900Z,1.00
2017-06-29T23:19:16.874Z,1.00
2017-06-29T23:21:44.713Z,1.10
2017-06-29T23:24:12.395Z,1.00
2017-06-29T23:26:44.444Z,0.90
2017-06-29T23:29:15.814Z,1.10
2017-06-29T23:31:44.900Z,1.03
2017-06-29T23:34:12.648Z,0.97
2017-06-29T23:36:40.540Z,1.00
2017-06-29T23:39:11.589Z,0.93
2017-06-29T23:41:43.917Z,1.13
2017-06-29T23:44:13.966Z,0.90
2017-06-29T23:46:41.846Z,0.97
2017-06-29T23:49:09.614Z,1.10
2017-06-29T23:51:37.414Z,0.97
2017-06-29T23:54:05.138Z,0.90
2017-06-29T23:56:32.915Z,1.03
2017-06-29T23:59:00.625Z,1.10
